メインページ
METAR-TAF:

METAR-TAF

空港 :

イサカ, ニューヨーク, アメリカ合衆国

緯度: 42-29N, 経度: 076-27W, 海抜: 335m

現時点の気象観測

当レポートは41分前の05:06(UTC)に作成
北西の風 5kt
気温
気圧 1015 hPa
視程: 0.4km
高度200ftの曇り
小雨

METAR: KITH 040506Z AUTO 31005KT 1/4SM R32/1600V1800FT -RA OVC002 A2998 RMK AO2 RAB0459 P0000

時間: 01:47 (05:47 UTC)

予報

当レポートは14分前の05:33(UTC)に作成
予報は04日の 06時(UTC)から 05日の 06時(UTC)まで有効
北/北西の風 6kt
視程: 1.6km
高度400ftの曇り
04日の 06時(UTC)から 04日の 09時(UTC)まで一時的に
視程: 0.4km
高度200ftの曇り
弱いにわか雨, 霧
04日の 1300時(UTC)から
変向風 3kt
視程: 3.2km
高度400ftの曇り
04日の 1600時(UTC)から
変向風 3kt
視程: 4.8km
高度400ftの千切れ雲あり
04日の 1800時(UTC)から
変向風 3kt
視程: 10km
高度2500ftの千切れ雲あり

TAF: KITH 040533Z 0406/0506 33006KT 1SM BR OVC004 TEMPO 0406/0409 1/4SM -SHRA FG OVC002 FM041300 VRB03KT 2SM BR OVC004 FM041600 VRB03KT 3SM BR BKN004 FM041800 VRB03KT P6SM BKN025

4,000以上の空港の気象観測と天気予報(METAR報とTAF報)

利用可能な観測所は地図上に黄色い丸と赤い丸で示す。

丸の上にカーソルを重ねると観測所名を参照できる。

次にクリックすると気象観測と天気予報を参照できる。

マップの切り替え:黒色「×」印の緑ボタンをクリックして拡大、「-」印の緑ボタンをクリックして縮小、緑色の三角印をクリックして隣りの地図に切り替え


METAR-TAF: